Donnie Sonier — WDF9285 — position and weather

sailwx.info

Track history (hours):
 
Tides and Currents Weather Stations Pressure Air Temp Water Temp Dewpoint Dewpoint Depression Visibility Wind Speed Wind Dir Waves Ship Positions

Donnie Sonier

Owner: LeBeouf Bros. Towing, LLC, Houma, LA. More information available from US FCC via Universal Licensing System and Coast Guard Vessel Documentation Center.

Last reported at 2018-Jun-20 02:59 UTC. Time now 2018-Jun-20 07:14 UTC.
Position N 28°59' W 095°16'.

Length 22 m; draft 3.5 m.

Type: Tug. MMSI: 367503580.

Date/timePositionNaut miles runAvg speedWind from/ knotsBaromVisibWave heightAir tempDewpointWater temp
2018-Jun-20 02:59N 28°59' W 095°16'3 6.5
2018-Jun-20 02:30N 29°02' W 095°14'3 6.3
2018-Jun-20 02:00N 29°05' W 095°12'3 5.6
2018-Jun-20 01:30N 29°07' W 095°11'3 5.8
2018-Jun-20 00:59N 29°09' W 095°08'3 5.7
2018-Jun-20 00:30N 29°11' W 095°06'3 6.0
2018-Jun-20 00:00N 29°12' W 095°03'3 5.6
2018-Jun-19 23:30N 29°15' W 095°01'3 5.8
2018-Jun-19 23:00N 29°17' W 094°59'3 5.2
2018-Jun-19 22:30N 29°17' W 094°56'2 4.5
2018-Jun-19 22:00N 29°18' W 094°53'2 4.4
2018-Jun-19 21:30N 29°19' W 094°51'2 4.2
2018-Jun-19 21:00N 29°21' W 094°49'2 0.6
2018-Jun-19 17:28N 29°22' W 094°47'2 2.9
2018-Jun-19 16:50N 29°21' W 094°49'0 0.2
2018-Jun-19 16:30N 29°21' W 094°49'0 0.0
2018-Jun-19 16:00N 29°21' W 094°49'0 0.0
2018-Jun-19 15:28N 29°21' W 094°49'0 0.0
2018-Jun-19 15:00N 29°21' W 094°49'0 0.0
2018-Jun-19 14:30N 29°21' W 094°49'0 0.0
2018-Jun-19 13:47N 29°21' W 094°49'0 0.0
2018-Jun-19 13:18N 29°21' W 094°49'0 0.0
2018-Jun-19 13:00N 29°21' W 094°49'0 0.0
2018-Jun-19 12:20N 29°21' W 094°49'0 0.0
2018-Jun-19 11:28N 29°21' W 094°49'0 0.0
2018-Jun-19 10:58N 29°21' W 094°49'0 0.0
2018-Jun-19 10:26N 29°21' W 094°49'0 0.0
2018-Jun-19 10:00N 29°21' W 094°49'0 0.0
2018-Jun-19 09:30N 29°21' W 094°49'0 0.0
2018-Jun-19 09:00N 29°21' W 094°49'0 0.0
2018-Jun-19 08:29N 29°21' W 094°49'0 0.0
2018-Jun-19 08:00N 29°21' W 094°49'0 0.0
2018-Jun-19 07:30N 29°21' W 094°49'0 0.0
2018-Jun-19 07:00N 29°21' W 094°49'0 0.1
2018-Jun-19 06:26N 29°21' W 094°49'1 2.7
2018-Jun-19 06:00N 29°22' W 094°48'17 6.5
2018-Jun-19 03:21N 29°37' W 094°57'2 4.6
2018-Jun-19 03:00N 29°38' W 094°58'3 5.8
2018-Jun-19 02:28N 29°41' W 094°59'0 0.0
2018-Jun-17 06:55N 29°41' W 094°59'24 4.9
2018-Jun-17 01:59N 29°18' W 094°53'2 4.1
2018-Jun-17 01:30N 29°17' W 094°55'3 4.7
2018-Jun-17 00:54N 29°17' W 094°58'2 4.7
2018-Jun-17 00:30N 29°16' W 094°60'2 4.6
2018-Jun-17 00:00N 29°14' W 095°02'2 3.7
2018-Jun-16 23:30N 29°12' W 095°03'2 4.0
2018-Jun-16 23:00N 29°11' W 095°05'3 5.5
2018-Jun-16 22:30N 29°10' W 095°07'3 5.5
2018-Jun-16 22:00N 29°08' W 095°10'2 4.8
2018-Jun-16 21:30N 29°07' W 095°12'2 4.5
2018-Jun-16 21:00N 29°04' W 095°13'2 4.5
2018-Jun-16 20:30N 29°02' W 095°14'2 4.7
2018-Jun-16 20:00N 29°00' W 095°15'2 4.9
2018-Jun-16 19:30N 28°59' W 095°17'  
Track history (hours):
 
Tides and Currents Weather Stations Pressure Air Temp Water Temp Dewpoint Dewpoint Depression Visibility Wind Speed Wind Dir Waves Ship Positions

Donnie Sonier

Owner: LeBeouf Bros. Towing, LLC, Houma, LA. More information available from US FCC via Universal Licensing System and Coast Guard Vessel Documentation Center.

Last reported at 2018-Jun-20 02:59 UTC. Time now 2018-Jun-20 07:14 UTC.
Position N 28°59' W 095°16'.

Length 22 m; draft 3.5 m.

Type: Tug. MMSI: 367503580.

Date/timePositionNaut miles runAvg speedWind from/ knotsBaromVisibWave heightAir tempDewpointWater temp
2018-Jun-20 02:59N 28°59' W 095°16'3 6.5
2018-Jun-20 02:30N 29°02' W 095°14'3 6.3
2018-Jun-20 02:00N 29°05' W 095°12'3 5.6
2018-Jun-20 01:30N 29°07' W 095°11'3 5.8
2018-Jun-20 00:59N 29°09' W 095°08'3 5.7
2018-Jun-20 00:30N 29°11' W 095°06'3 6.0
2018-Jun-20 00:00N 29°12' W 095°03'3 5.6
2018-Jun-19 23:30N 29°15' W 095°01'3 5.8
2018-Jun-19 23:00N 29°17' W 094°59'3 5.2
2018-Jun-19 22:30N 29°17' W 094°56'2 4.5
2018-Jun-19 22:00N 29°18' W 094°53'2 4.4
2018-Jun-19 21:30N 29°19' W 094°51'2 4.2
2018-Jun-19 21:00N 29°21' W 094°49'2 0.6
2018-Jun-19 17:28N 29°22' W 094°47'2 2.9
2018-Jun-19 16:50N 29°21' W 094°49'0 0.2
2018-Jun-19 16:30N 29°21' W 094°49'0 0.0
2018-Jun-19 16:00N 29°21' W 094°49'0 0.0
2018-Jun-19 15:28N 29°21' W 094°49'0 0.0
2018-Jun-19 15:00N 29°21' W 094°49'0 0.0
2018-Jun-19 14:30N 29°21' W 094°49'0 0.0
2018-Jun-19 13:47N 29°21' W 094°49'0 0.0
2018-Jun-19 13:18N 29°21' W 094°49'0 0.0
2018-Jun-19 13:00N 29°21' W 094°49'0 0.0
2018-Jun-19 12:20N 29°21' W 094°49'0 0.0
2018-Jun-19 11:28N 29°21' W 094°49'0 0.0
2018-Jun-19 10:58N 29°21' W 094°49'0 0.0
2018-Jun-19 10:26N 29°21' W 094°49'0 0.0
2018-Jun-19 10:00N 29°21' W 094°49'0 0.0
2018-Jun-19 09:30N 29°21' W 094°49'0 0.0
2018-Jun-19 09:00N 29°21' W 094°49'0 0.0
2018-Jun-19 08:29N 29°21' W 094°49'0 0.0
2018-Jun-19 08:00N 29°21' W 094°49'0 0.0
2018-Jun-19 07:30N 29°21' W 094°49'0 0.0
2018-Jun-19 07:00N 29°21' W 094°49'0 0.1
2018-Jun-19 06:26N 29°21' W 094°49'1 2.7
2018-Jun-19 06:00N 29°22' W 094°48'17 6.5
2018-Jun-19 03:21N 29°37' W 094°57'2 4.6
2018-Jun-19 03:00N 29°38' W 094°58'3 5.8
2018-Jun-19 02:28N 29°41' W 094°59'0 0.0
2018-Jun-17 06:55N 29°41' W 094°59'24 4.9
2018-Jun-17 01:59N 29°18' W 094°53'2 4.1
2018-Jun-17 01:30N 29°17' W 094°55'3 4.7
2018-Jun-17 00:54N 29°17' W 094°58'2 4.7
2018-Jun-17 00:30N 29°16' W 094°60'2 4.6
2018-Jun-17 00:00N 29°14' W 095°02'2 3.7
2018-Jun-16 23:30N 29°12' W 095°03'2 4.0
2018-Jun-16 23:00N 29°11' W 095°05'3 5.5
2018-Jun-16 22:30N 29°10' W 095°07'3 5.5
2018-Jun-16 22:00N 29°08' W 095°10'2 4.8
2018-Jun-16 21:30N 29°07' W 095°12'2 4.5
2018-Jun-16 21:00N 29°04' W 095°13'2 4.5
2018-Jun-16 20:30N 29°02' W 095°14'2 4.7
2018-Jun-16 20:00N 29°00' W 095°15'2 4.9
2018-Jun-16 19:30N 28°59' W 095°17'  

Dump ship's entire track history